createdAt,value
2017-02-22T00:00:07.566Z,9.96
2017-02-22T00:01:07.305Z,9.92
2017-02-22T00:02:07.946Z,10.00
2017-02-22T00:03:07.519Z,10.01
2017-02-22T00:04:08.060Z,9.91
2017-02-22T00:05:07.858Z,9.97
2017-02-22T00:06:07.684Z,9.95
2017-02-22T00:07:07.470Z,10.02
2017-02-22T00:08:08.066Z,9.99
2017-02-22T00:09:07.561Z,10.05
2017-02-22T00:10:07.054Z,10.00
2017-02-22T00:11:07.633Z,9.94
2017-02-22T00:12:07.211Z,9.97
2017-02-22T00:13:07.845Z,9.94
2017-02-22T00:14:07.323Z,9.99
2017-02-22T00:15:07.849Z,9.97
2017-02-22T00:16:07.459Z,10.02
2017-02-22T00:17:08.192Z,10.02
2017-02-22T00:18:08.014Z,9.91
2017-02-22T00:19:07.529Z,9.99
2017-02-22T00:20:17.149Z,9.99
2017-02-22T00:21:07.712Z,10.01
2017-02-22T00:22:07.283Z,9.95
2017-02-22T00:23:08.851Z,10.04
2017-02-22T00:24:07.348Z,9.97
2017-02-22T00:25:09.523Z,9.98
2017-02-22T00:26:07.563Z,10.05
2017-02-22T00:27:07.091Z,10.04
2017-02-22T00:28:07.644Z,10.03
2017-02-22T00:29:07.567Z,10.05
2017-02-22T00:30:07.464Z,10.03
2017-02-22T00:31:07.925Z,10.02
2017-02-22T00:32:07.451Z,10.06
2017-02-22T00:33:08.016Z,10.02
2017-02-22T00:34:07.554Z,10.04
2017-02-22T00:35:07.082Z,9.99
2017-02-22T00:36:07.368Z,10.01
2017-02-22T00:37:07.933Z,10.04
2017-02-22T00:38:07.634Z,10.03
2017-02-22T00:39:07.333Z,10.03
2017-02-22T00:40:07.930Z,10.01
2017-02-22T00:41:07.434Z,10.01
2017-02-22T00:42:08.050Z,10.05
2017-02-22T00:43:07.956Z,10.06
2017-02-22T00:45:07.581Z,10.05
2017-02-22T00:46:07.123Z,9.99
2017-02-22T00:47:07.557Z,9.94
2017-02-22T00:48:07.332Z,10.02
2017-02-22T00:49:07.877Z,10.01
2017-02-22T00:50:07.389Z,9.94
2017-02-22T00:51:07.988Z,9.96
2017-02-22T00:52:07.555Z,9.97
2017-02-22T00:53:07.179Z,9.94
2017-02-22T00:54:07.674Z,10.01
2017-02-22T00:55:07.187Z,9.99
2017-02-22T00:56:07.751Z,9.99
2017-02-22T00:57:07.324Z,9.93
2017-02-22T00:58:07.931Z,10.04
2017-02-22T00:59:17.402Z,10.07
2017-02-22T01:00:08.228Z,10.04
2017-02-22T01:03:07.655Z,10.04
2017-02-22T01:05:08.320Z,9.98
2017-02-22T01:06:07.786Z,9.97
2017-02-22T01:08:12.948Z,9.99
2017-02-22T01:09:07.640Z,9.97
2017-02-22T01:10:07.214Z,10.01
2017-02-22T01:11:07.811Z,10.01
2017-02-22T01:12:07.530Z,9.94
2017-02-22T01:13:07.468Z,10.00
2017-02-22T01:14:07.962Z,10.00
2017-02-22T01:15:07.225Z,10.03
2017-02-22T01:16:07.772Z,9.97
2017-02-22T01:17:08.587Z,10.02
2017-02-22T01:18:07.134Z,10.03
2017-02-22T01:19:08.684Z,10.03
2017-02-22T01:20:07.809Z,9.94
2017-02-22T01:21:07.886Z,9.98
2017-02-22T01:24:08.143Z,10.00
2017-02-22T01:25:07.745Z,9.91
2017-02-22T01:26:07.248Z,9.95
2017-02-22T01:27:07.314Z,9.94
2017-02-22T01:28:08.379Z,9.99
2017-02-22T01:29:08.862Z,9.99
2017-02-22T01:30:07.328Z,9.97
2017-02-22T01:31:08.800Z,9.97
2017-02-22T01:32:08.609Z,10.04
2017-02-22T01:33:07.200Z,10.01
2017-02-22T01:34:07.661Z,9.91
2017-02-22T01:35:07.845Z,9.89
2017-02-22T01:36:07.595Z,9.96
2017-02-22T01:37:08.141Z,9.92
2017-02-22T01:38:07.725Z,10.03
2017-02-22T01:39:07.168Z,10.05
2017-02-22T01:40:07.667Z,10.05
2017-02-22T01:41:07.244Z,10.00
2017-02-22T01:42:08.152Z,10.01
2017-02-22T01:43:07.709Z,9.97
2017-02-22T01:44:08.014Z,9.97
2017-02-22T01:45:07.567Z,9.96
2017-02-22T01:46:09.307Z,9.99
2017-02-22T01:47:09.089Z,10.01
2017-02-22T01:48:07.727Z,9.98
2017-02-22T01:49:08.595Z,9.91
2017-02-22T01:50:07.358Z,9.97
2017-02-22T01:51:08.036Z,9.99
2017-02-22T01:52:08.245Z,9.88
2017-02-22T01:53:08.706Z,9.95
2017-02-22T01:54:07.633Z,9.90
2017-02-22T01:55:07.086Z,9.95
2017-02-22T01:56:08.147Z,9.94
2017-02-22T01:57:07.792Z,9.90
2017-02-22T01:58:08.593Z,9.99
2017-02-22T01:59:08.207Z,9.92
2017-02-22T02:00:08.717Z,9.92
2017-02-22T02:01:07.240Z,9.91
2017-02-22T02:02:08.757Z,9.96
2017-02-22T02:03:07.498Z,9.92
2017-02-22T02:04:08.063Z,9.95
2017-02-22T02:05:08.585Z,9.98
2017-02-22T02:06:07.082Z,9.96
2017-02-22T02:07:08.717Z,9.82
2017-02-22T02:08:08.135Z,9.91
2017-02-22T02:09:08.769Z,9.94
2017-02-22T02:10:07.317Z,9.96
2017-02-22T02:11:07.923Z,9.97
2017-02-22T02:12:07.463Z,9.95
2017-02-22T02:13:07.620Z,9.92
2017-02-22T02:14:07.436Z,9.91
2017-02-22T02:15:08.001Z,9.83
2017-02-22T02:16:08.444Z,9.87
2017-02-22T02:17:08.204Z,9.91
2017-02-22T02:18:08.618Z,9.87
2017-02-22T02:19:07.094Z,9.90
2017-02-22T02:20:08.576Z,9.86
2017-02-22T02:21:08.895Z,9.89
2017-02-22T02:22:08.344Z,9.96
2017-02-22T02:23:07.839Z,9.87
2017-02-22T02:24:08.303Z,9.89
2017-02-22T02:25:07.802Z,9.96
2017-02-22T02:26:07.917Z,9.92
2017-02-22T02:27:07.586Z,9.90
2017-02-22T02:28:08.032Z,9.93
2017-02-22T02:29:07.655Z,9.88
2017-02-22T02:30:07.179Z,9.92
2017-02-22T02:31:08.057Z,9.90
2017-02-22T02:32:07.669Z,9.89
2017-02-22T02:33:07.256Z,9.95
2017-02-22T02:34:08.401Z,9.95
2017-02-22T02:35:07.468Z,9.91
2017-02-22T02:36:07.582Z,9.93
2017-02-22T02:37:07.201Z,9.91
2017-02-22T02:38:07.864Z,9.91
2017-02-22T02:39:07.387Z,9.90
2017-02-22T02:40:08.042Z,9.93
2017-02-22T02:41:07.866Z,9.96
2017-02-22T02:42:08.282Z,9.88
2017-02-22T02:43:07.819Z,9.90
2017-02-22T02:44:07.492Z,9.90
2017-02-22T02:45:08.090Z,9.91
2017-02-22T02:46:07.877Z,9.90
2017-02-22T02:47:07.439Z,9.90
2017-02-22T02:48:08.016Z,9.88
2017-02-22T02:49:07.566Z,9.79
2017-02-22T02:50:07.196Z,9.87
2017-02-22T02:51:08.635Z,9.87
2017-02-22T02:52:08.083Z,9.90
2017-02-22T02:53:08.515Z,9.94
2017-02-22T02:54:08.963Z,9.91
2017-02-22T02:55:08.827Z,9.93
2017-02-22T02:56:08.271Z,9.89
2017-02-22T02:57:08.113Z,9.90
2017-02-22T02:58:08.551Z,9.90
2017-02-22T02:59:09.009Z,9.84
2017-02-22T03:00:07.607Z,9.82
2017-02-22T03:01:07.271Z,9.79
2017-02-22T03:02:08.712Z,9.79
2017-02-22T03:03:07.420Z,9.76
2017-02-22T03:04:08.879Z,9.80
2017-02-22T03:05:08.350Z,9.75
2017-02-22T03:06:08.020Z,9.79
2017-02-22T03:07:08.469Z,9.78
2017-02-22T03:08:08.908Z,9.77
2017-02-22T03:09:08.430Z,9.78
2017-02-22T03:10:07.312Z,9.81
2017-02-22T03:11:07.976Z,9.84
2017-02-22T03:12:08.459Z,9.81
2017-02-22T03:13:08.937Z,9.80
2017-02-22T03:14:07.526Z,9.80
2017-02-22T03:15:08.017Z,9.80
2017-02-22T03:16:08.496Z,9.74
2017-02-22T03:17:08.090Z,9.73
2017-02-22T03:18:07.799Z,9.75
2017-02-22T03:19:08.619Z,9.83
2017-02-22T03:20:07.431Z,9.81
2017-02-22T03:21:08.951Z,9.86
2017-02-22T03:22:07.447Z,9.85
2017-02-22T03:23:08.039Z,9.82
2017-02-22T03:24:07.865Z,9.79
2017-02-22T03:25:07.425Z,9.81
2017-02-22T03:26:08.940Z,9.75
2017-02-22T03:27:08.406Z,9.81
2017-02-22T03:29:07.423Z,9.85
2017-02-22T03:30:08.921Z,9.83
2017-02-22T03:31:07.721Z,9.75
2017-02-22T03:32:08.239Z,9.77
2017-02-22T03:33:08.707Z,9.78
2017-02-22T03:34:07.263Z,9.80
2017-02-22T03:35:08.728Z,9.77
2017-02-22T03:36:08.249Z,9.81
2017-02-22T03:37:08.688Z,9.85
2017-02-22T03:38:07.190Z,9.81
2017-02-22T03:39:08.710Z,9.86
2017-02-22T03:40:07.287Z,9.78
2017-02-22T03:41:08.981Z,9.82
2017-02-22T03:42:08.447Z,9.86
2017-02-22T03:43:08.916Z,9.87
2017-02-22T03:44:08.403Z,9.86
2017-02-22T03:45:08.846Z,9.81
2017-02-22T03:46:08.349Z,9.85
2017-02-22T03:47:08.832Z,9.86
2017-02-22T03:48:08.266Z,9.84
2017-02-22T03:49:07.898Z,9.88
2017-02-22T03:50:07.457Z,9.86
2017-02-22T03:51:08.982Z,9.86
2017-02-22T03:52:08.429Z,9.84
2017-02-22T03:53:08.304Z,9.86
2017-02-22T03:54:08.788Z,9.85
2017-02-22T03:55:08.226Z,9.89
2017-02-22T03:56:07.802Z,9.91
2017-02-22T03:57:07.559Z,9.90
2017-02-22T03:58:08.059Z,9.90
2017-02-22T03:59:07.746Z,9.87
2017-02-22T04:00:07.347Z,9.84
2017-02-22T04:01:07.945Z,9.84
2017-02-22T04:02:07.617Z,9.86
2017-02-22T04:03:07.123Z,9.88
2017-02-22T04:04:07.978Z,9.90
2017-02-22T04:05:07.569Z,9.88
2017-02-22T04:06:07.400Z,9.94
2017-02-22T04:07:07.937Z,9.90
2017-02-22T04:08:07.466Z,9.89
2017-02-22T04:09:07.962Z,9.89
2017-02-22T04:10:07.563Z,9.88
2017-02-22T04:11:07.071Z,9.86
2017-02-22T04:12:07.896Z,9.89
2017-02-22T04:13:07.392Z,9.93
2017-02-22T04:14:07.964Z,9.96
2017-02-22T04:15:07.510Z,9.90
2017-02-22T04:16:08.106Z,9.91
2017-02-22T04:17:07.790Z,9.88
2017-02-22T04:18:07.302Z,9.89
2017-02-22T04:19:07.896Z,9.87
2017-02-22T04:20:07.452Z,9.88
2017-02-22T04:21:07.968Z,9.86
2017-02-22T04:22:07.502Z,9.86
2017-02-22T04:23:07.626Z,9.85
2017-02-22T04:24:07.316Z,9.83
2017-02-22T04:25:07.873Z,9.84
2017-02-22T04:26:07.814Z,9.83
2017-02-22T04:27:07.608Z,9.89
2017-02-22T04:28:17.128Z,9.82
2017-02-22T04:29:07.733Z,9.89
2017-02-22T04:30:07.259Z,9.87
2017-02-22T04:31:07.859Z,9.87
2017-02-22T04:32:07.550Z,9.88
2017-02-22T04:33:08.163Z,9.88
2017-02-22T04:34:07.771Z,9.84
2017-02-22T04:35:07.344Z,9.84
2017-02-22T04:36:07.841Z,9.81
2017-02-22T04:37:07.409Z,9.82
2017-02-22T04:38:07.977Z,9.80
2017-02-22T04:39:07.547Z,9.80
2017-02-22T04:40:07.991Z,9.82
2017-02-22T04:41:07.896Z,9.87
2017-02-22T04:42:07.437Z,9.86
2017-02-22T04:43:07.138Z,9.83
2017-02-22T04:44:07.795Z,9.86
2017-02-22T04:45:07.518Z,9.83
2017-02-22T04:46:08.153Z,9.84
2017-02-22T04:47:07.750Z,9.86
2017-02-22T04:48:07.330Z,9.88
2017-02-22T04:49:07.853Z,9.83
2017-02-22T04:50:07.468Z,9.88
2017-02-22T04:51:08.100Z,9.84
2017-02-22T04:52:07.730Z,9.87
2017-02-22T04:53:07.276Z,9.85
2017-02-22T04:54:07.909Z,9.84
2017-02-22T04:55:07.370Z,9.91
2017-02-22T04:56:08.052Z,9.85
2017-02-22T04:57:07.743Z,9.89
2017-02-22T04:58:07.515Z,9.83
2017-02-22T04:59:08.180Z,9.90
2017-02-22T05:00:07.746Z,9.89
2017-02-22T05:01:07.277Z,9.85
2017-02-22T05:02:07.913Z,9.89
2017-02-22T05:03:07.499Z,9.85
2017-02-22T05:04:08.098Z,9.89
2017-02-22T05:05:07.528Z,9.89
2017-02-22T05:06:07.810Z,9.90
2017-02-22T05:07:07.467Z,9.92
2017-02-22T05:08:17.960Z,9.90
2017-02-22T05:09:07.665Z,9.92
2017-02-22T05:10:07.176Z,9.92
2017-02-22T05:11:07.741Z,9.88
2017-02-22T05:12:07.290Z,9.86
2017-02-22T05:13:07.844Z,9.88
2017-02-22T05:14:07.382Z,9.92
2017-02-22T05:15:07.932Z,9.88
2017-02-22T05:16:07.518Z,9.88
2017-02-22T05:17:08.326Z,9.92
2017-02-22T05:18:07.826Z,9.93
2017-02-22T05:19:07.835Z,9.89
2017-02-22T05:20:07.470Z,9.87
2017-02-22T05:21:08.108Z,9.90
2017-02-22T05:22:07.714Z,9.91
2017-02-22T05:23:07.243Z,9.92
2017-02-22T05:24:07.763Z,9.89
2017-02-22T05:25:10.072Z,9.93
2017-02-22T05:26:07.711Z,9.92
2017-02-22T05:27:07.340Z,9.90
2017-02-22T05:28:17.820Z,9.94
2017-02-22T05:29:07.708Z,9.97
2017-02-22T05:30:07.918Z,9.92
2017-02-22T05:31:07.562Z,9.89
2017-02-22T05:32:07.108Z,9.92
2017-02-22T05:33:07.646Z,9.92
2017-02-22T05:34:07.286Z,9.94
2017-02-22T05:35:07.869Z,9.95
2017-02-22T05:36:07.548Z,9.93
2017-02-22T05:37:08.511Z,9.95
2017-02-22T05:38:07.077Z,9.95
2017-02-22T05:39:07.849Z,9.99
2017-02-22T05:40:07.597Z,9.91
2017-02-22T05:41:07.274Z,9.88
2017-02-22T05:42:08.738Z,9.90
2017-02-22T05:43:07.247Z,9.93
2017-02-22T05:44:07.780Z,9.91
2017-02-22T05:45:07.375Z,9.93
2017-02-22T05:46:07.128Z,9.97
2017-02-22T05:47:07.631Z,9.97
2017-02-22T05:48:07.291Z,9.96
2017-02-22T05:49:07.887Z,9.96
2017-02-22T05:50:07.349Z,9.93
2017-02-22T05:51:07.698Z,9.91
2017-02-22T05:52:07.572Z,9.88
2017-02-22T05:53:07.057Z,9.88
2017-02-22T05:54:07.908Z,9.90
2017-02-22T05:55:07.427Z,9.92
2017-02-22T05:56:08.031Z,9.90
2017-02-22T05:57:07.687Z,9.93
2017-02-22T05:58:07.230Z,9.98
2017-02-22T05:59:08.002Z,9.99
2017-02-22T06:00:07.625Z,9.97
2017-02-22T06:01:07.510Z,9.97
2017-02-22T06:02:08.120Z,10.02
2017-02-22T06:03:08.878Z,9.95
2017-02-22T06:04:07.437Z,10.03
2017-02-22T06:05:08.037Z,10.05
2017-02-22T06:06:07.497Z,10.00
2017-02-22T06:07:08.106Z,10.05
2017-02-22T06:08:07.773Z,9.99
2017-02-22T06:09:07.348Z,10.06
2017-02-22T06:10:07.959Z,10.06
2017-02-22T06:11:07.478Z,9.98
2017-02-22T06:12:08.122Z,10.01
2017-02-22T06:13:07.922Z,10.01
2017-02-22T06:14:07.469Z,10.07
2017-02-22T06:15:08.054Z,10.02
2017-02-22T06:16:07.607Z,10.07
2017-02-22T06:17:07.264Z,9.97
2017-02-22T06:18:07.794Z,9.98
2017-02-22T06:19:07.436Z,10.02
2017-02-22T06:20:07.930Z,10.04
2017-02-22T06:21:08.095Z,9.96
2017-02-22T06:22:07.677Z,10.04
2017-02-22T06:23:07.482Z,10.03
2017-02-22T06:24:08.126Z,10.03
2017-02-22T06:25:07.713Z,10.06
2017-02-22T06:26:07.316Z,10.07
2017-02-22T06:27:08.032Z,10.02
2017-02-22T06:28:07.738Z,10.12
2017-02-22T06:29:08.167Z,10.08
2017-02-22T06:30:07.786Z,10.05
2017-02-22T06:31:07.406Z,10.06
2017-02-22T06:32:07.961Z,10.06
2017-02-22T06:33:07.522Z,10.02
2017-02-22T06:34:09.912Z,10.02
2017-02-22T06:35:07.686Z,10.02
2017-02-22T06:36:07.246Z,10.04
2017-02-22T06:37:07.826Z,10.01
2017-02-22T06:38:07.337Z,10.05
2017-02-22T06:39:07.746Z,10.13
2017-02-22T06:40:07.350Z,10.06
2017-02-22T06:41:07.894Z,10.08
2017-02-22T06:42:07.527Z,10.11
2017-02-22T06:43:08.158Z,10.10
2017-02-22T06:44:07.812Z,10.10
2017-02-22T06:45:07.665Z,10.08
2017-02-22T06:46:07.268Z,10.12
2017-02-22T06:47:07.849Z,10.08
2017-02-22T06:48:07.804Z,10.06
2017-02-22T06:49:07.333Z,10.12
2017-02-22T06:50:08.849Z,10.05
2017-02-22T06:51:07.619Z,10.05
2017-02-22T06:52:07.132Z,10.09
2017-02-22T06:53:07.771Z,10.08
2017-02-22T06:54:07.237Z,10.11
2017-02-22T06:55:07.973Z,10.17
2017-02-22T06:56:07.723Z,10.17
2017-02-22T06:57:07.366Z,10.14
2017-02-22T06:58:08.806Z,10.15
2017-02-22T06:59:07.335Z,10.16
2017-02-22T07:00:08.023Z,10.15
2017-02-22T07:01:07.530Z,10.03
2017-02-22T07:02:08.174Z,10.09
2017-02-22T07:03:07.803Z,10.11
2017-02-22T07:04:07.357Z,10.18
2017-02-22T07:05:07.970Z,10.10
2017-02-22T07:06:07.526Z,10.09
2017-02-22T07:07:08.130Z,10.04
2017-02-22T07:08:08.016Z,10.09
2017-02-22T07:09:07.541Z,10.04
2017-02-22T07:10:08.104Z,10.06
2017-02-22T07:11:07.525Z,10.09
2017-02-22T07:12:08.197Z,10.05
2017-02-22T07:13:07.978Z,10.01
2017-02-22T07:14:07.566Z,9.94
2017-02-22T07:15:07.173Z,9.96
2017-02-22T07:16:07.673Z,9.95
2017-02-22T07:17:07.407Z,9.95
2017-02-22T07:18:08.312Z,9.99
2017-02-22T07:19:07.858Z,9.92
2017-02-22T07:20:07.489Z,10.00
2017-02-22T07:21:08.095Z,9.97
2017-02-22T07:22:07.635Z,9.96
2017-02-22T07:23:07.106Z,9.96
2017-02-22T07:24:07.816Z,9.96
2017-02-22T07:25:07.384Z,9.97
2017-02-22T07:26:07.993Z,9.96
2017-02-22T07:27:07.607Z,10.02
2017-02-22T07:28:07.214Z,9.97
2017-02-22T07:29:17.689Z,9.97
2017-02-22T07:30:07.538Z,10.04
2017-02-22T07:31:07.078Z,10.12
2017-02-22T07:32:07.942Z,10.16
2017-02-22T07:33:07.518Z,10.21
2017-02-22T07:34:08.113Z,10.18
2017-02-22T07:35:07.668Z,10.12
2017-02-22T07:36:07.159Z,10.06
2017-02-22T07:37:07.783Z,10.11
2017-02-22T07:38:07.360Z,10.21
2017-02-22T07:39:08.204Z,10.25
2017-02-22T07:40:08.679Z,10.27
2017-02-22T07:41:07.345Z,10.30
2017-02-22T07:42:07.910Z,10.30
2017-02-22T07:43:07.396Z,10.31
2017-02-22T07:44:07.940Z,10.29
2017-02-22T07:45:07.477Z,10.34
2017-02-22T07:46:08.005Z,10.30
2017-02-22T07:47:07.555Z,10.34
2017-02-22T07:48:07.075Z,10.41
2017-02-22T07:49:07.650Z,10.44
2017-02-22T07:50:07.205Z,10.41
2017-02-22T07:51:07.863Z,10.49
2017-02-22T07:52:07.669Z,10.43
2017-02-22T07:53:07.257Z,10.52
2017-02-22T07:54:07.888Z,10.56
2017-02-22T07:55:07.440Z,10.55
2017-02-22T07:56:08.020Z,10.58
2017-02-22T07:57:07.687Z,10.56
2017-02-22T07:58:07.158Z,10.50
2017-02-22T07:59:07.732Z,10.55
2017-02-22T08:00:07.224Z,10.56
2017-02-22T08:01:07.863Z,10.59
2017-02-22T08:02:07.417Z,10.60
2017-02-22T08:03:08.054Z,10.65
2017-02-22T08:04:07.590Z,10.69
2017-02-22T08:05:07.106Z,10.77
2017-02-22T08:06:07.674Z,10.78
2017-02-22T08:07:07.168Z,10.77
2017-02-22T08:08:07.724Z,10.75
2017-02-22T08:09:07.231Z,10.86
2017-02-22T08:10:07.805Z,10.81
2017-02-22T08:11:07.326Z,10.81
2017-02-22T08:12:07.888Z,10.85
2017-02-22T08:13:07.496Z,10.86
2017-02-22T08:14:08.294Z,10.89
2017-02-22T08:15:07.845Z,10.80
2017-02-22T08:16:07.426Z,10.96
2017-02-22T08:17:08.127Z,11.00
2017-02-22T08:18:07.717Z,10.98
2017-02-22T08:19:07.218Z,10.86
2017-02-22T08:20:07.809Z,10.93
2017-02-22T08:21:07.384Z,11.04
2017-02-22T08:22:07.975Z,10.95
2017-02-22T08:23:07.683Z,10.97
2017-02-22T08:24:07.384Z,10.99
2017-02-22T08:25:07.976Z,10.96
2017-02-22T08:26:07.637Z,10.88
2017-02-22T08:27:07.245Z,10.84
2017-02-22T08:28:07.836Z,10.74
2017-02-22T08:29:07.347Z,10.70
2017-02-22T08:30:07.935Z,10.69
2017-02-22T08:31:07.515Z,10.74
2017-02-22T08:32:08.134Z,10.76
2017-02-22T08:33:07.715Z,10.81
2017-02-22T08:34:07.302Z,10.79
2017-02-22T08:35:07.888Z,10.78
2017-02-22T08:36:07.455Z,10.79
2017-02-22T08:37:08.064Z,10.78
2017-02-22T08:38:07.623Z,10.84
2017-02-22T08:39:07.133Z,10.96
2017-02-22T08:40:07.763Z,10.94
2017-02-22T08:41:07.404Z,10.91
2017-02-22T08:42:07.930Z,10.95
2017-02-22T08:43:07.888Z,10.98
2017-02-22T08:44:07.475Z,11.06
2017-02-22T08:45:08.087Z,11.10
2017-02-22T08:46:07.913Z,11.03
2017-02-22T08:47:07.638Z,11.13
2017-02-22T08:48:07.183Z,11.19
2017-02-22T08:49:07.729Z,11.16
2017-02-22T08:50:07.337Z,11.23
2017-02-22T08:51:08.012Z,11.26
2017-02-22T08:52:07.516Z,11.26
2017-02-22T08:53:08.393Z,11.18
2017-02-22T08:54:07.991Z,11.19
2017-02-22T08:55:07.539Z,11.07
2017-02-22T08:56:08.285Z,11.03
2017-02-22T08:57:07.887Z,11.04
2017-02-22T08:59:07.720Z,11.01
2017-02-22T09:00:07.254Z,11.04
2017-02-22T09:01:07.910Z,11.03
2017-02-22T09:02:07.729Z,11.03
2017-02-22T09:03:07.285Z,11.07
2017-02-22T09:04:07.792Z,11.03
2017-02-22T09:05:07.339Z,11.15
2017-02-22T09:06:07.902Z,11.18
2017-02-22T09:07:07.552Z,11.22
2017-02-22T09:08:08.162Z,11.18
2017-02-22T09:09:08.054Z,11.31
2017-02-22T09:10:07.651Z,11.37
2017-02-22T09:11:07.294Z,11.39
2017-02-22T09:12:07.867Z,11.56
2017-02-22T09:13:07.386Z,11.58
2017-02-22T09:14:08.013Z,11.65
2017-02-22T09:15:07.617Z,11.80
2017-02-22T09:16:07.187Z,11.80
2017-02-22T09:17:07.871Z,11.75
2017-02-22T09:18:07.392Z,11.54
2017-02-22T09:19:08.100Z,11.63
2017-02-22T09:20:07.963Z,11.72
2017-02-22T09:21:07.471Z,11.79
2017-02-22T09:22:08.131Z,11.83
2017-02-22T09:23:07.734Z,11.72
2017-02-22T09:24:07.321Z,11.55
2017-02-22T09:25:07.810Z,11.72
2017-02-22T09:26:07.371Z,11.71
2017-02-22T09:27:08.019Z,11.55
2017-02-22T09:28:07.595Z,11.57
2017-02-22T09:29:07.181Z,11.63
2017-02-22T09:30:08.060Z,11.65
2017-02-22T09:31:07.641Z,11.80
2017-02-22T09:32:07.209Z,11.73
2017-02-22T09:33:07.793Z,11.68
2017-02-22T09:34:07.279Z,11.50
2017-02-22T09:35:07.800Z,11.69
2017-02-22T09:36:07.310Z,11.64
2017-02-22T09:37:07.891Z,11.59
2017-02-22T09:38:07.461Z,11.61
2017-02-22T09:39:08.059Z,11.61
2017-02-22T09:40:07.777Z,11.67
2017-02-22T09:41:07.389Z,11.66
2017-02-22T09:42:07.960Z,11.70
2017-02-22T09:43:07.550Z,11.57
2017-02-22T09:44:08.114Z,11.61
2017-02-22T09:45:07.614Z,11.51
2017-02-22T09:46:07.249Z,11.52
2017-02-22T09:47:07.828Z,11.49
2017-02-22T09:48:07.433Z,11.43
2017-02-22T09:49:08.039Z,11.35
2017-02-22T09:50:07.601Z,11.48
2017-02-22T09:51:07.100Z,11.44
2017-02-22T09:52:07.710Z,11.45
2017-02-22T09:53:07.236Z,11.42
2017-02-22T09:54:08.120Z,11.40
2017-02-22T09:55:07.673Z,11.45
2017-02-22T09:56:07.265Z,11.36
2017-02-22T09:57:08.009Z,11.56
2017-02-22T09:59:17.720Z,11.56
2017-02-22T10:00:07.236Z,11.68
2017-02-22T10:01:07.786Z,11.51
2017-02-22T10:02:07.387Z,11.49
2017-02-22T10:03:08.184Z,11.48
2017-02-22T10:04:07.759Z,11.41
2017-02-22T10:05:07.477Z,11.35
2017-02-22T10:06:08.022Z,11.32
2017-02-22T10:07:07.683Z,11.38
2017-02-22T10:08:07.269Z,11.50
2017-02-22T10:09:07.867Z,11.72
2017-02-22T10:10:07.342Z,11.94
2017-02-22T10:11:07.201Z,11.96
2017-02-22T10:12:07.954Z,11.98
2017-02-22T10:13:07.438Z,11.87
2017-02-22T10:14:08.008Z,11.66
2017-02-22T10:15:07.636Z,11.65
2017-02-22T10:16:07.135Z,11.60
2017-02-22T10:17:07.924Z,11.82
2017-02-22T10:18:07.395Z,11.80
2017-02-22T10:19:07.894Z,11.60
2017-02-22T10:20:07.652Z,11.62
2017-02-22T10:21:07.182Z,11.80
2017-02-22T10:22:07.715Z,11.90
2017-02-22T10:23:07.477Z,11.94
2017-02-22T10:24:08.077Z,11.90
2017-02-22T10:25:07.687Z,11.83
2017-02-22T10:26:07.286Z,11.96
2017-02-22T10:27:08.018Z,11.76
2017-02-22T10:28:07.537Z,11.50
2017-02-22T10:29:08.131Z,11.46
2017-02-22T10:30:07.648Z,11.51
2017-02-22T10:31:07.135Z,11.44
2017-02-22T10:32:07.752Z,11.46
2017-02-22T10:33:07.293Z,11.44
2017-02-22T10:34:07.821Z,11.58
2017-02-22T10:35:07.734Z,11.34
2017-02-22T10:36:07.358Z,11.38
2017-02-22T10:37:07.962Z,11.35
2017-02-22T10:38:07.566Z,11.42
2017-02-22T10:39:08.217Z,11.49
2017-02-22T10:40:07.780Z,11.34
2017-02-22T10:41:07.404Z,11.21
2017-02-22T10:42:08.029Z,11.33
2017-02-22T10:43:07.662Z,11.26
2017-02-22T10:44:07.551Z,11.18
2017-02-22T10:45:08.169Z,11.16
2017-02-22T10:46:07.747Z,11.25
2017-02-22T10:47:07.579Z,11.34
2017-02-22T10:48:07.103Z,11.30
2017-02-22T10:49:07.605Z,11.29
2017-02-22T10:50:07.179Z,11.33
2017-02-22T10:51:07.805Z,11.43
2017-02-22T10:52:07.356Z,11.07
2017-02-22T10:53:07.969Z,11.12
2017-02-22T10:54:07.486Z,11.05
2017-02-22T10:55:08.088Z,11.21
2017-02-22T10:56:07.672Z,11.19
2017-02-22T10:57:07.417Z,11.14
2017-02-22T10:58:08.036Z,11.19
2017-02-22T10:59:07.620Z,11.08
2017-02-22T11:00:07.176Z,11.07
2017-02-22T11:01:07.805Z,11.11
2017-02-22T11:02:07.403Z,11.14
2017-02-22T11:03:08.024Z,11.09
2017-02-22T11:04:07.629Z,10.91
2017-02-22T11:05:07.134Z,11.04
2017-02-22T11:06:08.111Z,10.87
2017-02-22T11:07:07.778Z,11.05
2017-02-22T11:08:07.654Z,11.11
2017-02-22T11:09:07.347Z,11.09
2017-02-22T11:10:07.913Z,10.99
2017-02-22T11:11:07.453Z,11.14
2017-02-22T11:12:08.097Z,11.04
2017-02-22T11:13:07.965Z,11.05
2017-02-22T11:14:07.458Z,11.25
2017-02-22T11:15:07.920Z,11.32
2017-02-22T11:16:07.428Z,11.37
2017-02-22T11:17:08.247Z,11.51
2017-02-22T11:18:07.916Z,11.48
2017-02-22T11:19:07.617Z,11.40
2017-02-22T11:20:07.235Z,11.43
2017-02-22T11:21:07.389Z,11.56
2017-02-22T11:22:07.936Z,11.56
2017-02-22T11:23:07.533Z,11.56
2017-02-22T11:24:08.119Z,11.55
2017-02-22T11:25:07.728Z,11.66
2017-02-22T11:26:07.375Z,11.58
2017-02-22T11:27:08.198Z,11.71
2017-02-22T11:28:07.783Z,11.65
2017-02-22T11:29:07.512Z,11.67
2017-02-22T11:30:08.110Z,11.75
2017-02-22T11:31:07.671Z,11.63
2017-02-22T11:32:07.217Z,11.64
2017-02-22T11:33:07.722Z,11.74
2017-02-22T11:34:07.242Z,11.81
2017-02-22T11:35:07.960Z,11.82
2017-02-22T11:36:07.519Z,11.91
2017-02-22T11:37:07.971Z,11.94
2017-02-22T11:38:07.873Z,11.78
2017-02-22T11:39:07.508Z,11.52
2017-02-22T11:40:08.046Z,11.75
2017-02-22T11:41:07.686Z,11.72
2017-02-22T11:42:07.195Z,11.67
2017-02-22T11:43:07.729Z,11.65
2017-02-22T11:44:07.195Z,11.73
2017-02-22T11:45:07.804Z,11.92
2017-02-22T11:46:07.406Z,12.08
2017-02-22T11:47:08.029Z,12.01
2017-02-22T11:48:07.644Z,11.88
2017-02-22T11:49:07.439Z,11.61
2017-02-22T11:50:08.061Z,11.77
2017-02-22T11:51:07.580Z,11.71
2017-02-22T11:52:07.148Z,11.79
2017-02-22T11:53:07.745Z,11.87
2017-02-22T11:54:07.212Z,11.88
2017-02-22T11:55:07.666Z,11.83
2017-02-22T11:56:07.223Z,11.86
2017-02-22T11:57:07.899Z,12.05
2017-02-22T11:58:07.464Z,12.03
2017-02-22T11:59:07.942Z,12.07
2017-02-22T12:00:07.638Z,11.83
2017-02-22T12:01:07.505Z,11.92
2017-02-22T12:02:08.057Z,11.82
2017-02-22T12:03:08.194Z,11.79
2017-02-22T12:04:07.775Z,11.93
2017-02-22T12:05:07.321Z,12.06
2017-02-22T12:06:07.937Z,12.14
2017-02-22T12:07:07.476Z,12.27
2017-02-22T12:08:08.057Z,12.32
2017-02-22T12:09:07.630Z,12.30
2017-02-22T12:10:07.113Z,12.15
2017-02-22T12:11:07.753Z,12.35
2017-02-22T12:12:07.608Z,12.25
2017-02-22T12:13:07.771Z,12.31
2017-02-22T12:14:07.315Z,12.36
2017-02-22T12:15:08.012Z,12.46
2017-02-22T12:16:07.544Z,12.30
2017-02-22T12:17:08.300Z,12.54
2017-02-22T12:18:07.784Z,12.39
2017-02-22T12:19:07.343Z,12.48
2017-02-22T12:20:07.914Z,12.51
2017-02-22T12:21:07.502Z,12.59
2017-02-22T12:22:08.065Z,12.53
2017-02-22T12:23:07.985Z,12.50
2017-02-22T12:24:07.556Z,12.69
2017-02-22T12:25:08.203Z,12.79
2017-02-22T12:26:07.899Z,12.85
2017-02-22T12:27:07.534Z,12.89
2017-02-22T12:28:08.207Z,12.47
2017-02-22T12:29:07.645Z,12.55
2017-02-22T12:30:07.155Z,12.56
2017-02-22T12:31:07.829Z,12.57
2017-02-22T12:32:07.315Z,12.71
2017-02-22T12:33:07.945Z,12.59
2017-02-22T12:34:07.696Z,12.59
2017-02-22T12:35:07.915Z,12.46
2017-02-22T12:36:07.456Z,12.54
2017-02-22T12:37:08.062Z,12.37
2017-02-22T12:38:07.673Z,12.48
2017-02-22T12:39:07.254Z,12.37
2017-02-22T12:40:07.856Z,12.55
2017-02-22T12:41:07.485Z,12.55
2017-02-22T12:42:08.148Z,12.47
2017-02-22T12:43:07.682Z,12.35
2017-02-22T12:44:07.487Z,12.41
2017-02-22T12:45:08.094Z,12.46
2017-02-22T12:46:07.684Z,12.42
2017-02-22T12:47:07.202Z,12.50
2017-02-22T12:48:07.808Z,12.50
2017-02-22T12:49:07.363Z,12.56
2017-02-22T12:50:07.936Z,12.50
2017-02-22T12:51:07.474Z,12.58
2017-02-22T12:52:08.109Z,12.49
2017-02-22T12:53:07.609Z,12.42
2017-02-22T12:54:07.104Z,12.43
2017-02-22T12:55:07.896Z,12.58
2017-02-22T12:56:07.601Z,12.55
2017-02-22T12:57:07.219Z,12.57
2017-02-22T12:58:07.834Z,12.46
2017-02-22T12:59:07.285Z,12.40
2017-02-22T13:00:07.876Z,12.45
2017-02-22T13:01:07.352Z,12.60
2017-02-22T13:02:07.970Z,12.76
2017-02-22T13:03:07.490Z,12.68
2017-02-22T13:04:08.367Z,12.78
2017-02-22T13:05:08.151Z,13.02
2017-02-22T13:06:07.724Z,13.44
2017-02-22T13:07:07.523Z,13.44
2017-02-22T13:08:08.101Z,13.27
2017-02-22T13:09:07.608Z,13.41
2017-02-22T13:10:07.205Z,13.33
2017-02-22T13:11:07.830Z,13.28
2017-02-22T13:12:07.411Z,13.12
2017-02-22T13:13:07.892Z,12.76